sensor_id;sensor_type;location;lat;lon;timestamp;pressure;altitude;pressure_sealevel;temperature;humidity
46846;BME280;33947;46.804;134.252;2023-05-16T00:27:11;99747.94;;;26.84;39.64
46846;BME280;33947;46.804;134.252;2023-05-16T00:30:16;99744.19;;;26.34;40.79
46846;BME280;33947;46.804;134.252;2023-05-16T00:33:20;99731.56;;;26.25;41.68
46846;BME280;33947;46.804;134.252;2023-05-16T00:36:26;99738.63;;;27.37;38.67
46846;BME280;33947;46.804;134.252;2023-05-16T00:39:31;99738.41;;;27.80;38.58
46846;BME280;33947;46.804;134.252;2023-05-16T00:42:35;99736.50;;;28.05;37.44
46846;BME280;33947;46.804;134.252;2023-05-16T00:45:39;99732.63;;;27.41;39.34
46846;BME280;33947;46.804;134.252;2023-05-16T00:48:43;99726.59;;;26.71;41.63
46846;BME280;33947;46.804;134.252;2023-05-16T00:51:48;99664.28;;;27.59;38.26
46846;BME280;33947;46.804;134.252;2023-05-16T00:54:52;99722.41;;;26.42;40.61
46846;BME280;33947;46.804;134.252;2023-05-16T00:57:57;99712.66;;;26.23;39.50
46846;BME280;33947;46.804;134.252;2023-05-16T01:01:02;99733.88;;;24.12;43.16
46846;BME280;33947;46.804;134.252;2023-05-16T01:04:07;99727.72;;;24.38;44.36
46846;BME280;33947;46.804;134.252;2023-05-16T01:07:12;99749.81;;;24.25;43.85
46846;BME280;33947;46.804;134.252;2023-05-16T01:10:16;99737.94;;;23.88;43.21
46846;BME280;33947;46.804;134.252;2023-05-16T01:13:26;99733.31;;;23.41;43.82
46846;BME280;33947;46.804;134.252;2023-05-16T01:23:53;99731.59;;;22.40;45.08
46846;BME280;33947;46.804;134.252;2023-05-16T01:27:04;99692.56;;;21.61;47.40
46846;BME280;33947;46.804;134.252;2023-05-16T01:30:17;99696.72;;;21.22;48.30
46846;BME280;33947;46.804;134.252;2023-05-16T01:33:21;99728.38;;;21.20;48.23
46846;BME280;33947;46.804;134.252;2023-05-16T01:39:50;99685.13;;;20.22;51.13
46846;BME280;33947;46.804;134.252;2023-05-16T01:42:59;99712.34;;;20.19;51.80
46846;BME280;33947;46.804;134.252;2023-05-16T01:46:14;99744.69;;;20.42;51.86
46846;BME280;33947;46.804;134.252;2023-05-16T01:52:57;99625.81;;;19.20;53.49
46846;BME280;33947;46.804;134.252;2023-05-16T01:56:03;99767.44;;;19.81;53.89
46846;BME280;33947;46.804;134.252;2023-05-16T01:59:10;99747.81;;;19.56;54.04
46846;BME280;33947;46.804;134.252;2023-05-16T02:02:17;99759.56;;;19.55;54.55
46846;BME280;33947;46.804;134.252;2023-05-16T02:05:22;99766.56;;;19.22;55.92
46846;BME280;33947;46.804;134.252;2023-05-16T02:08:27;99778.91;;;19.24;56.23
46846;BME280;33947;46.804;134.252;2023-05-16T02:11:31;99785.41;;;18.98;57.03
46846;BME280;33947;46.804;134.252;2023-05-16T02:14:35;99771.81;;;18.99;57.13
46846;BME280;33947;46.804;134.252;2023-05-16T02:17:40;99776.13;;;18.64;58.24
46846;BME280;33947;46.804;134.252;2023-05-16T02:20:44;99756.56;;;18.87;57.76
46846;BME280;33947;46.804;134.252;2023-05-16T02:23:50;99731.16;;;18.91;57.65
46846;BME280;33947;46.804;134.252;2023-05-16T02:26:54;99715.78;;;18.80;58.29
46846;BME280;33947;46.804;134.252;2023-05-16T02:29:58;99718.00;;;18.99;58.25
46846;BME280;33947;46.804;134.252;2023-05-16T02:33:06;99711.75;;;19.34;57.84
46846;BME280;33947;46.804;134.252;2023-05-16T02:36:10;99700.91;;;19.59;57.20
46846;BME280;33947;46.804;134.252;2023-05-16T02:39:17;99697.31;;;19.47;57.44
46846;BME280;33947;46.804;134.252;2023-05-16T02:42:21;99687.84;;;19.18;58.86
46846;BME280;33947;46.804;134.252;2023-05-16T02:45:25;99664.66;;;19.40;58.51
46846;BME280;33947;46.804;134.252;2023-05-16T02:48:29;99634.00;;;19.30;58.26
46846;BME280;33947;46.804;134.252;2023-05-16T02:51:34;99653.19;;;18.89;59.48
46846;BME280;33947;46.804;134.252;2023-05-16T02:54:39;99605.25;;;18.47;59.91
46846;BME280;33947;46.804;134.252;2023-05-16T02:57:43;99614.56;;;18.55;59.63
46846;BME280;33947;46.804;134.252;2023-05-16T03:00:48;99620.00;;;18.17;60.63
46846;BME280;33947;46.804;134.252;2023-05-16T03:03:52;99654.41;;;17.99;62.06
46846;BME280;33947;46.804;134.252;2023-05-16T03:06:57;99655.28;;;18.00;61.59
46846;BME280;33947;46.804;134.252;2023-05-16T03:10:02;99659.19;;;17.83;61.65
46846;BME280;33947;46.804;134.252;2023-05-16T03:13:06;99633.16;;;17.96;60.61
46846;BME280;33947;46.804;134.252;2023-05-16T03:16:10;99602.91;;;17.55;61.47
46846;BME280;33947;46.804;134.252;2023-05-16T03:19:14;99635.34;;;17.78;61.72
46846;BME280;33947;46.804;134.252;2023-05-16T03:22:18;99667.56;;;17.78;62.04
46846;BME280;33947;46.804;134.252;2023-05-16T03:25:23;99616.84;;;17.73;62.25
46846;BME280;33947;46.804;134.252;2023-05-16T03:28:27;99622.81;;;17.53;63.16
46846;BME280;33947;46.804;134.252;2023-05-16T03:31:31;99652.00;;;17.57;63.60
46846;BME280;33947;46.804;134.252;2023-05-16T03:34:36;99648.69;;;17.54;64.42
46846;BME280;33947;46.804;134.252;2023-05-16T03:37:41;99645.47;;;17.35;65.61
46846;BME280;33947;46.804;134.252;2023-05-16T03:40:45;99641.38;;;17.17;66.36
46846;BME280;33947;46.804;134.252;2023-05-16T03:43:49;99617.63;;;17.11;66.28
46846;BME280;33947;46.804;134.252;2023-05-16T03:46:52;99611.53;;;17.21;66.39
46846;BME280;33947;46.804;134.252;2023-05-16T03:49:58;99623.25;;;17.20;67.76
46846;BME280;33947;46.804;134.252;2023-05-16T03:53:02;99605.09;;;17.24;66.78
46846;BME280;33947;46.804;134.252;2023-05-16T03:56:07;99619.88;;;17.04;70.54
46846;BME280;33947;46.804;134.252;2023-05-16T03:59:11;99593.63;;;17.09;68.05
46846;BME280;33947;46.804;134.252;2023-05-16T04:02:16;99569.69;;;17.06;68.25
46846;BME280;33947;46.804;134.252;2023-05-16T04:05:20;99513.00;;;16.98;68.57
46846;BME280;33947;46.804;134.252;2023-05-16T04:08:24;99523.09;;;17.07;69.19
46846;BME280;33947;46.804;134.252;2023-05-16T04:11:29;99504.63;;;17.02;69.33
46846;BME280;33947;46.804;134.252;2023-05-16T04:14:34;99517.31;;;17.13;69.10
46846;BME280;33947;46.804;134.252;2023-05-16T04:17:38;99486.03;;;16.86;69.03
46846;BME280;33947;46.804;134.252;2023-05-16T04:20:42;99506.97;;;16.94;69.95
46846;BME280;33947;46.804;134.252;2023-05-16T04:23:47;99494.13;;;16.99;69.62
46846;BME280;33947;46.804;134.252;2023-05-16T04:26:51;99493.44;;;16.83;69.97
46846;BME280;33947;46.804;134.252;2023-05-16T04:29:55;99514.81;;;16.84;71.04
46846;BME280;33947;46.804;134.252;2023-05-16T04:32:59;99524.34;;;16.75;72.08
46846;BME280;33947;46.804;134.252;2023-05-16T04:36:04;99490.44;;;16.61;72.76
46846;BME280;33947;46.804;134.252;2023-05-16T04:39:08;99472.97;;;16.56;72.89
46846;BME280;33947;46.804;134.252;2023-05-16T04:42:12;99491.75;;;16.69;73.04
46846;BME280;33947;46.804;134.252;2023-05-16T04:45:16;99497.84;;;16.71;73.50
46846;BME280;33947;46.804;134.252;2023-05-16T04:48:20;99477.22;;;16.45;74.87
46846;BME280;33947;46.804;134.252;2023-05-16T04:51:24;99492.47;;;16.58;75.43
46846;BME280;33947;46.804;134.252;2023-05-16T04:54:29;99521.53;;;16.51;75.80
46846;BME280;33947;46.804;134.252;2023-05-16T04:57:33;99489.66;;;16.33;76.16
46846;BME280;33947;46.804;134.252;2023-05-16T05:00:38;99547.41;;;16.25;77.12
46846;BME280;33947;46.804;134.252;2023-05-16T05:03:54;99534.66;;;16.01;76.83
46846;BME280;33947;46.804;134.252;2023-05-16T05:07:07;99637.84;;;16.21;77.99
46846;BME280;33947;46.804;134.252;2023-05-16T05:10:13;99662.09;;;16.19;78.76
46846;BME280;33947;46.804;134.252;2023-05-16T05:13:21;99646.09;;;16.18;78.32
46846;BME280;33947;46.804;134.252;2023-05-16T05:16:26;99617.56;;;16.17;79.10
46846;BME280;33947;46.804;134.252;2023-05-16T05:19:30;99601.63;;;16.01;80.37
46846;BME280;33947;46.804;134.252;2023-05-16T05:22:34;99555.56;;;15.81;80.52
46846;BME280;33947;46.804;134.252;2023-05-16T05:25:46;99567.97;;;15.97;80.80
46846;BME280;33947;46.804;134.252;2023-05-16T05:28:50;99540.78;;;15.46;82.61
46846;BME280;33947;46.804;134.252;2023-05-16T05:32:06;99587.75;;;15.38;83.38
46846;BME280;33947;46.804;134.252;2023-05-16T05:35:11;99603.47;;;15.13;81.91
46846;BME280;33947;46.804;134.252;2023-05-16T05:38:15;99620.88;;;14.75;82.35
46846;BME280;33947;46.804;134.252;2023-05-16T05:41:27;99590.84;;;14.86;80.36
46846;BME280;33947;46.804;134.252;2023-05-16T05:44:32;99605.19;;;14.69;79.28
46846;BME280;33947;46.804;134.252;2023-05-16T05:47:43;99594.81;;;14.32;80.07
46846;BME280;33947;46.804;134.252;2023-05-16T05:50:47;99614.22;;;14.36;79.59
46846;BME280;33947;46.804;134.252;2023-05-16T05:53:54;99570.75;;;14.48;78.35
46846;BME280;33947;46.804;134.252;2023-05-16T05:57:01;99557.16;;;14.37;78.35
46846;BME280;33947;46.804;134.252;2023-05-16T06:00:06;99570.03;;;14.14;79.51
46846;BME280;33947;46.804;134.252;2023-05-16T06:03:16;99544.16;;;13.84;81.05
46846;BME280;33947;46.804;134.252;2023-05-16T06:06:20;99556.81;;;13.81;82.51
46846;BME280;33947;46.804;134.252;2023-05-16T06:09:27;99533.03;;;13.76;83.58
46846;BME280;33947;46.804;134.252;2023-05-16T06:12:31;99491.56;;;13.86;83.23
46846;BME280;33947;46.804;134.252;2023-05-16T06:15:35;99471.91;;;14.18;80.50
46846;BME280;33947;46.804;134.252;2023-05-16T06:18:39;99476.50;;;14.16;79.88
46846;BME280;33947;46.804;134.252;2023-05-16T06:21:46;99514.50;;;14.05;80.50
46846;BME280;33947;46.804;134.252;2023-05-16T06:24:50;99470.47;;;13.66;81.94
46846;BME280;33947;46.804;134.252;2023-05-16T06:27:54;99481.31;;;14.09;80.45
46846;BME280;33947;46.804;134.252;2023-05-16T06:30:58;99469.88;;;13.60;81.58
46846;BME280;33947;46.804;134.252;2023-05-16T06:34:05;99492.41;;;13.55;84.43
46846;BME280;33947;46.804;134.252;2023-05-16T06:37:10;99481.19;;;13.80;82.66
46846;BME280;33947;46.804;134.252;2023-05-16T06:40:16;99428.50;;;13.84;80.77
46846;BME280;33947;46.804;134.252;2023-05-16T06:43:22;99444.25;;;13.88;81.21
46846;BME280;33947;46.804;134.252;2023-05-16T06:46:27;99451.50;;;13.86;81.17
46846;BME280;33947;46.804;134.252;2023-05-16T06:49:35;99443.97;;;13.46;83.44
46846;BME280;33947;46.804;134.252;2023-05-16T06:52:39;99456.97;;;13.53;84.34
46846;BME280;33947;46.804;134.252;2023-05-16T06:55:45;99459.97;;;13.46;83.73
46846;BME280;33947;46.804;134.252;2023-05-16T06:58:49;99485.63;;;13.49;85.08
46846;BME280;33947;46.804;134.252;2023-05-16T07:02:01;99510.09;;;13.40;85.35
46846;BME280;33947;46.804;134.252;2023-05-16T07:05:10;99522.16;;;13.31;87.11
46846;BME280;33947;46.804;134.252;2023-05-16T07:08:14;99542.94;;;13.58;86.30
46846;BME280;33947;46.804;134.252;2023-05-16T07:11:19;99551.47;;;13.65;85.08
46846;BME280;33947;46.804;134.252;2023-05-16T07:14:24;99546.50;;;13.41;88.02
46846;BME280;33947;46.804;134.252;2023-05-16T07:17:31;99527.13;;;13.21;87.37
46846;BME280;33947;46.804;134.252;2023-05-16T07:20:36;99518.09;;;13.08;88.48
46846;BME280;33947;46.804;134.252;2023-05-16T07:23:40;99503.13;;;13.21;87.89
46846;BME280;33947;46.804;134.252;2023-05-16T07:26:47;99485.41;;;12.86;88.12
46846;BME280;33947;46.804;134.252;2023-05-16T07:29:52;99458.97;;;13.15;88.00
46846;BME280;33947;46.804;134.252;2023-05-16T07:32:56;99450.09;;;12.83;87.65
46846;BME280;33947;46.804;134.252;2023-05-16T07:36:00;99429.94;;;12.77;89.11
46846;BME280;33947;46.804;134.252;2023-05-16T07:39:18;99427.56;;;12.72;89.21
46846;BME280;33947;46.804;134.252;2023-05-16T07:42:23;99437.16;;;12.75;89.91
46846;BME280;33947;46.804;134.252;2023-05-16T07:45:28;99423.28;;;13.02;88.04
46846;BME280;33947;46.804;134.252;2023-05-16T07:48:33;99432.75;;;13.08;86.66
46846;BME280;33947;46.804;134.252;2023-05-16T07:51:37;99430.53;;;13.16;87.25
46846;BME280;33947;46.804;134.252;2023-05-16T07:54:48;99424.28;;;12.83;87.59
46846;BME280;33947;46.804;134.252;2023-05-16T07:57:52;99398.41;;;12.85;88.40
46846;BME280;33947;46.804;134.252;2023-05-16T08:00:59;99424.41;;;13.14;87.30
46846;BME280;33947;46.804;134.252;2023-05-16T08:04:03;99415.38;;;13.00;88.21
46846;BME280;33947;46.804;134.252;2023-05-16T08:07:08;99391.03;;;13.07;87.25
46846;BME280;33947;46.804;134.252;2023-05-16T08:10:15;99419.69;;;13.19;87.42
46846;BME280;33947;46.804;134.252;2023-05-16T08:13:20;99384.94;;;12.88;87.45
46846;BME280;33947;46.804;134.252;2023-05-16T08:16:27;99433.25;;;13.14;87.39
46846;BME280;33947;46.804;134.252;2023-05-16T08:19:34;99428.88;;;13.29;86.96
46846;BME280;33947;46.804;134.252;2023-05-16T08:22:38;99407.47;;;13.15;86.60
46846;BME280;33947;46.804;134.252;2023-05-16T08:25:43;99412.81;;;13.15;87.83
46846;BME280;33947;46.804;134.252;2023-05-16T08:28:52;99425.28;;;13.30;87.42
46846;BME280;33947;46.804;134.252;2023-05-16T08:31:57;99382.78;;;13.11;86.98
46846;BME280;33947;46.804;134.252;2023-05-16T08:35:04;99375.38;;;13.16;87.49
46846;BME280;33947;46.804;134.252;2023-05-16T08:38:09;99337.19;;;13.16;87.40
46846;BME280;33947;46.804;134.252;2023-05-16T08:41:13;99306.56;;;13.23;85.66
46846;BME280;33947;46.804;134.252;2023-05-16T08:44:22;99300.88;;;13.45;84.51
46846;BME280;33947;46.804;134.252;2023-05-16T08:47:30;99323.19;;;13.59;84.50
46846;BME280;33947;46.804;134.252;2023-05-16T08:50:39;99336.81;;;13.54;84.62
46846;BME280;33947;46.804;134.252;2023-05-16T08:53:53;99345.00;;;13.51;84.92
46846;BME280;33947;46.804;134.252;2023-05-16T08:57:07;99352.34;;;13.62;84.05
46846;BME280;33947;46.804;134.252;2023-05-16T09:00:17;99326.78;;;13.27;85.14
46846;BME280;33947;46.804;134.252;2023-05-16T09:03:22;99367.88;;;13.39;85.64
46846;BME280;33947;46.804;134.252;2023-05-16T09:06:27;99362.97;;;13.31;85.44
46846;BME280;33947;46.804;134.252;2023-05-16T09:09:33;99364.03;;;13.29;86.34
46846;BME280;33947;46.804;134.252;2023-05-16T09:12:54;99382.34;;;13.19;86.76
46846;BME280;33947;46.804;134.252;2023-05-16T09:16:14;99391.38;;;13.16;87.23
46846;BME280;33947;46.804;134.252;2023-05-16T09:19:22;99382.94;;;13.24;87.28
46846;BME280;33947;46.804;134.252;2023-05-16T09:22:28;99350.72;;;13.13;87.84
46846;BME280;33947;46.804;134.252;2023-05-16T09:25:32;99348.28;;;13.08;87.20
46846;BME280;33947;46.804;134.252;2023-05-16T09:28:37;99386.03;;;13.32;86.83
46846;BME280;33947;46.804;134.252;2023-05-16T09:31:48;99379.69;;;13.19;87.43
46846;BME280;33947;46.804;134.252;2023-05-16T09:34:54;99381.06;;;12.94;89.28
46846;BME280;33947;46.804;134.252;2023-05-16T09:38:01;99395.25;;;12.95;89.65
46846;BME280;33947;46.804;134.252;2023-05-16T09:41:05;99402.56;;;13.07;89.37
46846;BME280;33947;46.804;134.252;2023-05-16T09:44:09;99392.84;;;13.06;89.71
46846;BME280;33947;46.804;134.252;2023-05-16T09:47:20;99379.09;;;13.14;89.08
46846;BME280;33947;46.804;134.252;2023-05-16T09:50:27;99373.75;;;12.82;90.47
46846;BME280;33947;46.804;134.252;2023-05-16T09:53:32;99390.91;;;12.60;93.24
46846;BME280;33947;46.804;134.252;2023-05-16T09:56:49;99414.31;;;12.87;91.60
46846;BME280;33947;46.804;134.252;2023-05-16T09:59:54;99404.88;;;12.97;91.34
46846;BME280;33947;46.804;134.252;2023-05-16T10:02:59;99378.91;;;13.17;89.02
46846;BME280;33947;46.804;134.252;2023-05-16T10:06:09;99352.25;;;12.69;89.04
46846;BME280;33947;46.804;134.252;2023-05-16T10:09:17;99373.22;;;12.91;90.45
46846;BME280;33947;46.804;134.252;2023-05-16T10:12:28;99357.00;;;12.96;89.91
46846;BME280;33947;46.804;134.252;2023-05-16T10:15:38;99372.81;;;12.99;89.22
46846;BME280;33947;46.804;134.252;2023-05-16T10:18:45;99362.16;;;12.99;89.64
46846;BME280;33947;46.804;134.252;2023-05-16T10:21:53;99324.22;;;13.10;88.33
46846;BME280;33947;46.804;134.252;2023-05-16T10:25:10;99325.78;;;13.14;87.33
46846;BME280;33947;46.804;134.252;2023-05-16T10:28:18;99404.81;;;12.99;88.16
46846;BME280;33947;46.804;134.252;2023-05-16T10:31:24;99383.38;;;13.00;88.78
46846;BME280;33947;46.804;134.252;2023-05-16T10:34:29;99361.44;;;13.11;87.31
46846;BME280;33947;46.804;134.252;2023-05-16T10:37:33;99357.59;;;13.17;86.37
46846;BME280;33947;46.804;134.252;2023-05-16T10:40:39;99347.59;;;13.21;85.52
46846;BME280;33947;46.804;134.252;2023-05-16T10:43:55;99342.88;;;13.10;86.01
46846;BME280;33947;46.804;134.252;2023-05-16T10:47:02;99341.41;;;12.88;87.03
46846;BME280;33947;46.804;134.252;2023-05-16T10:50:09;99331.28;;;12.95;88.16
46846;BME280;33947;46.804;134.252;2023-05-16T10:53:28;99330.41;;;12.94;88.36
46846;BME280;33947;46.804;134.252;2023-05-16T10:56:33;99315.97;;;12.98;88.30
46846;BME280;33947;46.804;134.252;2023-05-16T10:59:46;99257.28;;;13.14;86.12
46846;BME280;33947;46.804;134.252;2023-05-16T11:02:50;99202.09;;;13.00;86.27
46846;BME280;33947;46.804;134.252;2023-05-16T11:05:59;99188.34;;;12.78;85.83
46846;BME280;33947;46.804;134.252;2023-05-16T11:12:14;99180.06;;;12.82;85.85
46846;BME280;33947;46.804;134.252;2023-05-16T11:15:27;99222.75;;;12.50;85.88
46846;BME280;33947;46.804;134.252;2023-05-16T11:18:50;99260.16;;;12.31;87.78
46846;BME280;33947;46.804;134.252;2023-05-16T11:22:09;99118.78;;;11.38;88.86
46846;BME280;33947;46.804;134.252;2023-05-16T11:25:36;99164.09;;;11.86;87.57
46846;BME280;33947;46.804;134.252;2023-05-16T11:28:48;99234.16;;;12.36;87.41
46846;BME280;33947;46.804;134.252;2023-05-16T11:31:53;99241.97;;;12.23;87.54
46846;BME280;33947;46.804;134.252;2023-05-16T11:34:57;99293.31;;;12.25;87.74
46846;BME280;33947;46.804;134.252;2023-05-16T11:38:02;99206.41;;;11.75;87.25
46846;BME280;33947;46.804;134.252;2023-05-16T11:41:07;99351.38;;;12.52;86.85
46846;BME280;33947;46.804;134.252;2023-05-16T11:44:19;99337.00;;;12.55;86.65
46846;BME280;33947;46.804;134.252;2023-05-16T11:47:23;99334.94;;;12.60;86.37
46846;BME280;33947;46.804;134.252;2023-05-16T11:50:32;99322.31;;;12.48;86.74
46846;BME280;33947;46.804;134.252;2023-05-16T11:53:37;99294.09;;;12.27;87.04
46846;BME280;33947;46.804;134.252;2023-05-16T11:56:41;99255.13;;;12.74;86.19
46846;BME280;33947;46.804;134.252;2023-05-16T11:59:51;99213.69;;;12.53;87.91
46846;BME280;33947;46.804;134.252;2023-05-16T12:03:01;99169.91;;;12.89;86.82
46846;BME280;33947;46.804;134.252;2023-05-16T12:06:08;99180.16;;;12.81;86.84
46846;BME280;33947;46.804;134.252;2023-05-16T12:09:13;99336.03;;;12.40;89.52
46846;BME280;33947;46.804;134.252;2023-05-16T12:12:20;99351.97;;;12.57;89.37
46846;BME280;33947;46.804;134.252;2023-05-16T12:15:28;99342.91;;;12.44;89.18
46846;BME280;33947;46.804;134.252;2023-05-16T12:18:34;99401.50;;;12.44;91.60
46846;BME280;33947;46.804;134.252;2023-05-16T12:21:54;99395.41;;;12.42;92.72
46846;BME280;33947;46.804;134.252;2023-05-16T12:24:58;99307.59;;;12.07;94.21
46846;BME280;33947;46.804;134.252;2023-05-16T12:28:06;99351.34;;;12.36;93.93
46846;BME280;33947;46.804;134.252;2023-05-16T12:31:18;99345.91;;;12.38;93.30
46846;BME280;33947;46.804;134.252;2023-05-16T12:34:33;99325.34;;;12.57;93.38
46846;BME280;33947;46.804;134.252;2023-05-16T12:37:48;99294.38;;;12.55;92.24
46846;BME280;33947;46.804;134.252;2023-05-16T12:40:57;99329.63;;;12.76;90.79
46846;BME280;33947;46.804;134.252;2023-05-16T12:44:13;99325.78;;;12.82;89.89
46846;BME280;33947;46.804;134.252;2023-05-16T12:47:21;99297.06;;;12.71;88.98
46846;BME280;33947;46.804;134.252;2023-05-16T12:50:25;99300.66;;;12.86;89.78
46846;BME280;33947;46.804;134.252;2023-05-16T12:53:43;99298.00;;;12.86;89.38
46846;BME280;33947;46.804;134.252;2023-05-16T12:57:05;99308.84;;;12.83;90.07
46846;BME280;33947;46.804;134.252;2023-05-16T13:00:18;99278.16;;;12.59;89.91
46846;BME280;33947;46.804;134.252;2023-05-16T13:03:23;99311.41;;;12.68;91.15
46846;BME280;33947;46.804;134.252;2023-05-16T13:06:30;99313.56;;;12.78;91.32
46846;BME280;33947;46.804;134.252;2023-05-16T13:09:54;99314.59;;;12.59;91.98
46846;BME280;33947;46.804;134.252;2023-05-16T13:12:59;99308.81;;;12.51;92.58
46846;BME280;33947;46.804;134.252;2023-05-16T13:16:12;99359.88;;;12.59;91.99
46846;BME280;33947;46.804;134.252;2023-05-16T13:19:18;99345.38;;;12.65;91.99
46846;BME280;33947;46.804;134.252;2023-05-16T13:22:23;99333.94;;;12.79;91.38
46846;BME280;33947;46.804;134.252;2023-05-16T13:25:33;99305.13;;;12.85;89.79
46846;BME280;33947;46.804;134.252;2023-05-16T13:28:38;99277.28;;;12.75;89.56
46846;BME280;33947;46.804;134.252;2023-05-16T13:31:43;99303.94;;;12.59;91.86
46846;BME280;33947;46.804;134.252;2023-05-16T13:34:47;99288.47;;;12.50;92.79
46846;BME280;33947;46.804;134.252;2023-05-16T13:37:55;99273.69;;;12.60;91.57
46846;BME280;33947;46.804;134.252;2023-05-16T13:41:01;99269.13;;;12.62;91.55
46846;BME280;33947;46.804;134.252;2023-05-16T13:44:07;99233.47;;;12.49;91.78
46846;BME280;33947;46.804;134.252;2023-05-16T13:47:13;99223.50;;;12.52;91.54
46846;BME280;33947;46.804;134.252;2023-05-16T13:50:17;99245.59;;;12.54;91.51
46846;BME280;33947;46.804;134.252;2023-05-16T13:53:21;99253.06;;;12.48;91.98
46846;BME280;33947;46.804;134.252;2023-05-16T13:56:25;99263.19;;;12.41;92.97
46846;BME280;33947;46.804;134.252;2023-05-16T13:59:29;99283.53;;;12.26;93.29
46846;BME280;33947;46.804;134.252;2023-05-16T14:02:53;99289.34;;;12.16;94.59
46846;BME280;33947;46.804;134.252;2023-05-16T14:05:59;99314.91;;;12.03;96.04
46846;BME280;33947;46.804;134.252;2023-05-16T14:09:04;99322.78;;;12.22;96.08
46846;BME280;33947;46.804;134.252;2023-05-16T14:12:08;99332.75;;;12.35;94.42
46846;BME280;33947;46.804;134.252;2023-05-16T14:15:13;99327.56;;;12.15;95.75
46846;BME280;33947;46.804;134.252;2023-05-16T14:18:17;99320.75;;;12.10;96.82
46846;BME280;33947;46.804;134.252;2023-05-16T14:21:21;99351.63;;;12.14;96.92
46846;BME280;33947;46.804;134.252;2023-05-16T14:24:25;99348.47;;;12.23;95.72
46846;BME280;33947;46.804;134.252;2023-05-16T14:27:30;99324.03;;;11.97;95.70
46846;BME280;33947;46.804;134.252;2023-05-16T14:30:37;99356.84;;;12.15;96.47
46846;BME280;33947;46.804;134.252;2023-05-16T14:33:42;99376.47;;;12.30;95.50
46846;BME280;33947;46.804;134.252;2023-05-16T14:36:49;99372.47;;;12.39;94.13
46846;BME280;33947;46.804;134.252;2023-05-16T14:39:54;99390.06;;;12.42;94.17
46846;BME280;33947;46.804;134.252;2023-05-16T14:42:59;99402.94;;;12.34;94.60
46846;BME280;33947;46.804;134.252;2023-05-16T14:46:06;99406.78;;;12.28;95.47
46846;BME280;33947;46.804;134.252;2023-05-16T14:49:13;99417.75;;;12.22;95.93
46846;BME280;33947;46.804;134.252;2023-05-16T14:52:18;99421.13;;;12.25;96.13
46846;BME280;33947;46.804;134.252;2023-05-16T14:55:22;99422.28;;;12.37;95.06
46846;BME280;33947;46.804;134.252;2023-05-16T14:58:27;99424.78;;;12.40;94.83
46846;BME280;33947;46.804;134.252;2023-05-16T15:01:31;99411.31;;;12.43;94.57
46846;BME280;33947;46.804;134.252;2023-05-16T15:04:35;99420.94;;;12.46;95.23
46846;BME280;33947;46.804;134.252;2023-05-16T15:07:45;99416.34;;;12.32;94.92
46846;BME280;33947;46.804;134.252;2023-05-16T15:10:50;99457.03;;;12.52;95.16
46846;BME280;33947;46.804;134.252;2023-05-16T15:13:54;99456.66;;;12.42;95.06
46846;BME280;33947;46.804;134.252;2023-05-16T15:17:03;99449.53;;;12.25;95.39
46846;BME280;33947;46.804;134.252;2023-05-16T15:20:11;99510.00;;;12.58;95.59
46846;BME280;33947;46.804;134.252;2023-05-16T15:23:18;99530.28;;;12.78;94.07
46846;BME280;33947;46.804;134.252;2023-05-16T15:26:22;99537.03;;;12.68;93.69
46846;BME280;33947;46.804;134.252;2023-05-16T15:29:27;99531.94;;;12.63;94.89
46846;BME280;33947;46.804;134.252;2023-05-16T15:32:31;99510.47;;;12.49;94.57
46846;BME280;33947;46.804;134.252;2023-05-16T15:35:36;99536.25;;;12.48;94.83
46846;BME280;33947;46.804;134.252;2023-05-16T15:38:39;99515.34;;;12.40;95.61
46846;BME280;33947;46.804;134.252;2023-05-16T15:41:47;99563.84;;;12.65;95.84
46846;BME280;33947;46.804;134.252;2023-05-16T15:45:11;99584.22;;;12.66;94.80
46846;BME280;33947;46.804;134.252;2023-05-16T15:48:15;99573.88;;;12.59;94.59
46846;BME280;33947;46.804;134.252;2023-05-16T15:51:19;99570.34;;;12.59;95.42
46846;BME280;33947;46.804;134.252;2023-05-16T15:54:23;99567.34;;;12.48;95.20
46846;BME280;33947;46.804;134.252;2023-05-16T15:57:28;99574.88;;;12.74;93.94
46846;BME280;33947;46.804;134.252;2023-05-16T16:00:33;99571.91;;;12.63;94.14
46846;BME280;33947;46.804;134.252;2023-05-16T16:03:37;99605.44;;;12.85;94.98
46846;BME280;33947;46.804;134.252;2023-05-16T16:06:42;99549.81;;;12.61;94.79
46846;BME280;33947;46.804;134.252;2023-05-16T16:09:46;99549.72;;;12.63;95.18
46846;BME280;33947;46.804;134.252;2023-05-16T16:13:03;99566.34;;;12.50;96.65
46846;BME280;33947;46.804;134.252;2023-05-16T16:16:07;99580.75;;;12.64;96.05
46846;BME280;33947;46.804;134.252;2023-05-16T16:19:12;99572.31;;;12.55;96.16
46846;BME280;33947;46.804;134.252;2023-05-16T16:22:16;99541.50;;;12.32;95.83
46846;BME280;33947;46.804;134.252;2023-05-16T16:25:24;99595.50;;;12.53;96.09
46846;BME280;33947;46.804;134.252;2023-05-16T16:28:29;99544.03;;;12.35;96.13
46846;BME280;33947;46.804;134.252;2023-05-16T16:31:33;99569.41;;;12.42;95.75
46846;BME280;33947;46.804;134.252;2023-05-16T16:34:37;99495.41;;;11.95;95.31
46846;BME280;33947;46.804;134.252;2023-05-16T16:37:42;99592.28;;;12.47;95.33
46846;BME280;33947;46.804;134.252;2023-05-16T16:41:06;99627.69;;;12.49;95.28
46846;BME280;33947;46.804;134.252;2023-05-16T16:44:10;99636.78;;;12.44;95.71
46846;BME280;33947;46.804;134.252;2023-05-16T16:47:14;99619.22;;;12.40;95.48